Time;durP1;ratioP1;P1;durP2;ratioP2;P2;SDS_P1;SDS_P2;PMS_P1;PMS_P2;Temp;Humidity;BMP_temperature;BMP_pressure;BME280_temperature;BME280_humidity;BME280_pressure;Samples;Min_cycle;Max_cycle;Signal;HPM_P1;HPM_P2
2022/10/09 00:01:18;;;;;;;43.13;9.60;;;;;;;19.43;nan;101185.19;6194328;23;20445;-87
2022/10/09 00:03:48;;;;;;;52.57;10.57;;;;;;;19.42;nan;101185.41;6244419;23;20456;-89
2022/10/09 00:06:21;;;;;;;32.80;9.30;;;;;;;19.39;nan;101180.34;6195310;23;20449;-88
2022/10/09 00:08:49;;;;;;;47.03;11.43;;;;;;;19.37;nan;101182.50;6195816;23;20462;-89
2022/10/09 00:11:22;;;;;;;34.77;9.37;;;;;;;19.35;nan;101170.81;6195736;23;20517;-89
2022/10/09 00:17:17;;;;;;;45.93;9.97;;;;;;;19.22;nan;101156.13;6246324;23;20410;-89
2022/10/09 00:19:44;;;;;;;44.17;10.17;;;;;;;19.21;nan;101161.91;6194917;23;20407;-89
2022/10/09 00:22:12;;;;;;;47.27;9.40;;;;;;;19.28;nan;101180.09;6170044;23;20411;-89
2022/10/09 00:24:41;;;;;;;39.10;10.13;;;;;;;19.22;nan;101169.16;6219568;23;20407;-89
2022/10/09 00:27:09;;;;;;;39.87;10.43;;;;;;;19.23;nan;101165.28;6194849;23;21056;-88
2022/10/09 00:29:36;;;;;;;54.13;9.77;;;;;;;19.14;nan;101164.78;6220223;23;20481;-89
2022/10/09 00:32:04;;;;;;;37.83;9.63;;;;;;;19.18;nan;101179.03;6219674;23;20852;-89
2022/10/09 00:34:34;;;;;;;29.93;8.40;;;;;;;19.21;nan;101186.84;6075784;23;20851;-88
2022/10/09 00:37:01;;;;;;;47.50;11.13;;;;;;;19.12;nan;101175.28;5962765;23;20489;-89
2022/10/09 00:39:29;;;;;;;40.67;9.10;;;;;;;19.04;nan;101150.72;6009141;23;20506;-88
2022/10/09 00:41:57;;;;;;;47.13;9.67;;;;;;;19.09;nan;101167.44;6003445;23;20496;-88
2022/10/09 00:45:04;;;;;;;28.90;9.67;;;;;;;19.09;nan;101159.13;6008570;23;20932;-88
2022/10/09 00:47:39;;;;;;;51.97;11.87;;;;;;;19.04;nan;101161.78;5925661;24;20423;-88
2022/10/09 00:50:09;;;;;;;51.03;11.50;;;;;;;19.04;nan;101169.25;5925384;24;20501;-89
2022/10/09 00:52:37;;;;;;;37.70;11.60;;;;;;;18.95;nan;101155.75;5925536;24;20496;-89
2022/10/09 00:58:35;;;;;;;27.63;8.50;;;;;;;18.82;nan;101136.59;5939229;24;20410;-89
2022/10/09 01:01:03;;;;;;;34.90;8.93;;;;;;;18.88;nan;101143.06;5979537;23;20491;-89
2022/10/09 01:03:31;;;;;;;26.63;8.63;;;;;;;18.87;nan;101127.53;5995855;23;20900;-89
2022/10/09 01:06:29;;;;;;;33.17;9.53;;;;;;;18.81;nan;101117.44;6019245;23;20446;-89
2022/10/09 01:09:14;;;;;;;29.43;8.67;;;;;;;18.89;nan;101142.00;6021213;23;20431;-89
2022/10/09 01:11:47;;;;;;;38.60;9.80;;;;;;;18.85;nan;101138.03;6042203;23;20516;-89
2022/10/09 01:14:15;;;;;;;33.23;9.33;;;;;;;18.85;nan;101138.03;5950617;24;20491;-88
2022/10/09 01:17:23;;;;;;;38.60;10.27;;;;;;;18.79;nan;101145.38;5928148;24;20423;-88
2022/10/09 01:20:06;;;;;;;50.43;11.00;;;;;;;18.78;nan;101140.91;6041911;23;20788;-88
2022/10/09 01:22:44;;;;;;;46.40;10.27;;;;;;;18.76;nan;101132.00;6065900;23;20452;-89
2022/10/09 01:25:20;;;;;;;26.43;9.50;;;;;;;18.67;nan;101135.31;6065304;23;20482;-87
2022/10/09 01:27:49;;;;;;;43.20;11.00;;;;;;;18.59;nan;101129.06;6065412;23;20463;-89
2022/10/09 01:30:16;;;;;;;32.73;9.00;;;;;;;18.56;nan;101131.44;6019071;23;20490;-89
2022/10/09 01:32:46;;;;;;;24.57;8.40;;;;;;;18.60;nan;101139.06;6106598;23;20798;-87
2022/10/09 01:35:16;;;;;;;26.63;8.00;;;;;;;18.59;nan;101131.84;6163906;23;20418;-87
2022/10/09 01:37:45;;;;;;;34.47;9.00;;;;;;;18.56;nan;101132.28;6166852;23;20404;-88
2022/10/09 01:40:14;;;;;;;26.93;8.60;;;;;;;18.60;nan;101127.16;6142354;23;20404;-87
2022/10/09 01:42:42;;;;;;;33.20;8.47;;;;;;;18.63;nan;101133.06;6142307;23;20478;-88
2022/10/09 01:45:13;;;;;;;38.30;9.30;;;;;;;18.62;nan;101130.53;6191227;23;21021;-87
2022/10/09 01:47:44;;;;;;;27.17;9.30;;;;;;;18.63;nan;101119.22;6215231;23;20932;-87
2022/10/09 01:50:19;;;;;;;28.63;8.47;;;;;;;18.60;nan;101116.06;6217789;23;20487;-86
2022/10/09 01:52:53;;;;;;;41.77;9.73;;;;;;;18.59;nan;101126.31;6166060;23;20400;-87
2022/10/09 01:55:49;;;;;;;38.40;8.80;;;;;;;18.57;nan;101122.06;6215713;23;20489;-86
2022/10/09 01:58:37;;;;;;;35.50;8.30;;;;;;;18.55;nan;101113.13;6216986;23;20925;-88
2022/10/09 02:01:12;;;;;;;30.57;8.77;;;;;;;18.56;nan;101110.13;6194506;23;20395;-88
2022/10/09 02:03:41;;;;;;;33.23;8.40;;;;;;;18.55;nan;101113.13;6216033;23;20938;-87
2022/10/09 02:06:11;;;;;;;46.03;9.40;;;;;;;18.52;nan;101102.53;6190338;23;20439;-88
2022/10/09 02:08:41;;;;;;;27.27;7.83;;;;;;;18.52;nan;101119.97;6142095;23;20465;-87
2022/10/09 02:11:10;;;;;;;33.27;7.83;;;;;;;18.50;nan;101122.16;6190646;23;20418;-87
2022/10/09 02:13:38;;;;;;;34.57;8.70;;;;;;;18.48;nan;101113.22;6166194;23;20966;-86
2022/10/09 02:16:13;;;;;;;28.50;7.80;;;;;;;18.50;nan;101111.06;6190792;23;20468;-87
2022/10/09 02:18:45;;;;;;;38.13;9.77;;;;;;;18.46;nan;101101.59;6166881;23;20909;-87
2022/10/09 02:21:40;;;;;;;30.70;7.70;;;;;;;18.50;nan;101107.47;6215000;23;20404;-87
2022/10/09 02:24:17;;;;;;;27.60;7.30;;;;;;;18.50;nan;101122.16;6190670;23;20470;-88
2022/10/09 02:26:45;;;;;;;28.03;8.20;;;;;;;18.45;nan;101130.34;6190995;23;20836;-88
2022/10/09 02:29:13;;;;;;;27.57;7.70;;;;;;;18.40;nan;101121.88;6190083;23;20411;-88
2022/10/09 02:31:41;;;;;;;30.50;9.10;;;;;;;18.48;nan;101129.00;6141734;23;20491;-86
2022/10/09 02:34:11;;;;;;;29.90;8.00;;;;;;;18.49;nan;101127.91;6165912;23;21013;-87
2022/10/09 02:36:39;;;;;;;30.77;7.93;;;;;;;18.44;nan;101114.81;6166162;23;20415;-87
2022/10/09 02:39:08;;;;;;;20.30;7.47;;;;;;;18.50;nan;101118.53;6166122;23;20408;-88
2022/10/09 02:41:36;;;;;;;40.47;8.30;;;;;;;18.49;nan;101109.38;6190475;23;20733;-88
2022/10/09 02:44:04;;;;;;;37.00;7.40;;;;;;;18.53;nan;101115.28;6165792;23;20478;-87
2022/10/09 02:46:33;;;;;;;37.50;8.30;;;;;;;18.52;nan;101128.28;6190511;23;20439;-88
2022/10/09 02:49:02;;;;;;;36.83;7.57;;;;;;;18.48;nan;101131.75;6142283;23;20530;-86
2022/10/09 02:51:30;;;;;;;30.93;7.53;;;;;;;18.49;nan;101117.69;6215004;23;20395;-88
2022/10/09 02:54:01;;;;;;;40.40;8.10;;;;;;;18.47;nan;101117.06;6189954;23;20466;-87
2022/10/09 02:56:29;;;;;;;20.43;7.33;;;;;;;18.46;nan;101122.88;6214916;23;20490;-86
2022/10/09 02:58:56;;;;;;;39.47;8.30;;;;;;;18.51;nan;101128.53;6166219;23;20471;-87
2022/10/09 03:01:24;;;;;;;27.20;7.20;;;;;;;18.51;nan;101129.38;6165656;23;20399;-88
2022/10/09 03:03:53;;;;;;;35.10;7.80;;;;;;;18.48;nan;101135.38;6142028;23;20488;-86
2022/10/09 03:06:23;;;;;;;30.30;7.17;;;;;;;18.51;nan;101148.75;6189753;23;20440;-88
2022/10/09 03:08:52;;;;;;;28.47;7.53;;;;;;;18.46;nan;101145.88;6190349;23;20791;-86
2022/10/09 03:11:20;;;;;;;34.27;8.17;;;;;;;18.46;nan;101136.72;6165653;23;20487;-88
2022/10/09 03:13:49;;;;;;;31.80;8.00;;;;;;;18.43;nan;101143.56;6165705;23;20406;-88
2022/10/09 03:16:18;;;;;;;33.43;8.50;;;;;;;18.37;nan;101144.50;6141325;23;20494;-87
2022/10/09 03:18:47;;;;;;;23.73;8.27;;;;;;;18.38;nan;101151.72;6165654;23;20813;-90
2022/10/09 03:21:22;;;;;;;16.93;7.80;;;;;;;18.33;nan;101148.81;6166051;23;20487;-89
2022/10/09 03:23:50;;;;;;;26.37;8.13;;;;;;;18.30;nan;101150.13;6166410;23;20407;-87
2022/10/09 03:26:21;;;;;;;22.87;7.40;;;;;;;18.25;nan;101152.78;6165702;23;20447;-89
2022/10/09 03:28:49;;;;;;;24.93;7.93;;;;;;;18.27;nan;101152.53;6165860;23;20539;-89
2022/10/09 03:31:19;;;;;;;24.93;7.63;;;;;;;18.24;nan;101151.06;6165412;23;20485;-89
2022/10/09 03:34:09;;;;;;;21.73;8.50;;;;;;;18.19;nan;101141.78;6174222;23;20428;-90
2022/10/09 03:36:38;;;;;;;26.20;8.43;;;;;;;18.19;nan;101144.56;6166080;23;20491;-90
2022/10/09 03:39:06;;;;;;;29.50;9.00;;;;;;;18.12;nan;101135.50;6190222;23;20486;-90
2022/10/09 03:41:34;;;;;;;27.50;9.23;;;;;;;18.12;nan;101141.03;6165577;23;20745;-90
2022/10/09 03:44:01;;;;;;;28.20;9.40;;;;;;;18.08;nan;101140.66;6165933;23;20542;-89
2022/10/09 03:47:02;;;;;;;18.63;8.70;;;;;;;18.09;nan;101147.03;6165678;23;20525;-89
2022/10/09 03:49:30;;;;;;;30.50;9.53;;;;;;;18.06;nan;101141.97;6165471;23;20415;-90
2022/10/09 03:51:57;;;;;;;21.57;9.83;;;;;;;18.05;nan;101151.34;6166035;23;20494;-91
2022/10/09 03:54:25;;;;;;;35.43;10.37;;;;;;;18.02;nan;101143.50;6141298;23;20733;-89
2022/10/09 03:56:53;;;;;;;26.13;8.80;;;;;;;18.01;nan;101150.97;6165705;23;20490;-89
2022/10/09 03:59:21;;;;;;;21.37;9.03;;;;;;;18.00;nan;101149.28;6190864;23;20479;-90
2022/10/09 04:01:49;;;;;;;25.60;10.10;;;;;;;17.97;nan;101148.91;6141627;23;20550;-90
2022/10/09 04:04:17;;;;;;;27.23;10.20;;;;;;;17.93;nan;101152.13;6140784;23;20403;-90
2022/10/09 04:06:44;;;;;;;22.63;9.63;;;;;;;17.92;nan;101141.28;6166054;23;20518;-90
2022/10/09 04:09:13;;;;;;;17.43;8.40;;;;;;;17.92;nan;101144.91;6165560;23;20490;-90
2022/10/09 04:11:40;;;;;;;29.27;9.60;;;;;;;17.87;nan;101132.88;6165306;23;20411;-90
2022/10/09 04:14:09;;;;;;;30.90;9.40;;;;;;;17.87;nan;101135.63;6141315;23;20487;-90
2022/10/09 04:16:37;;;;;;;23.40;9.40;;;;;;;17.83;nan;101137.16;6190198;23;20416;-90
2022/10/09 04:19:05;;;;;;;42.07;9.57;;;;;;;17.81;nan;101139.31;6141306;23;20407;-90
2022/10/09 04:21:32;;;;;;;25.00;9.27;;;;;;;17.70;nan;101129.88;6165589;23;20486;-90
2022/10/09 04:24:02;;;;;;;26.37;9.70;;;;;;;17.78;nan;101142.53;6189841;23;20989;-90
2022/10/09 04:26:32;;;;;;;21.77;8.90;;;;;;;17.75;nan;101138.31;6141800;23;20950;-90
2022/10/09 04:28:59;;;;;;;29.37;7.57;;;;;;;17.75;nan;101135.53;6165298;23;20852;-90
2022/10/09 04:31:27;;;;;;;20.40;9.33;;;;;;;17.78;nan;101137.00;6165223;23;20486;-91
2022/10/09 04:33:56;;;;;;;25.93;8.80;;;;;;;17.73;nan;101147.91;6140945;23;20431;-90
2022/10/09 04:36:25;;;;;;;22.03;7.73;;;;;;;17.69;nan;101147.56;6165344;23;20936;-90
2022/10/09 04:38:53;;;;;;;20.13;8.17;;;;;;;17.65;nan;101143.56;6165739;23;20395;-88
2022/10/09 04:41:21;;;;;;;20.13;8.90;;;;;;;17.67;nan;101154.38;6189425;23;20451;-88
2022/10/09 04:43:53;;;;;;;22.03;9.67;;;;;;;17.66;nan;101148.00;6189743;23;20414;-89
2022/10/09 04:46:21;;;;;;;21.63;8.70;;;;;;;17.65;nan;101142.72;6165340;23;20522;-89
2022/10/09 04:48:49;;;;;;;19.10;7.70;;;;;;;17.60;nan;101146.97;6140584;23;20454;-88
2022/10/09 04:51:19;;;;;;;18.70;7.83;;;;;;;17.59;nan;101152.72;6167071;23;20867;-89
2022/10/09 04:53:48;;;;;;;19.10;8.50;;;;;;;17.59;nan;101155.50;6189644;23;20919;-89
2022/10/09 04:56:17;;;;;;;23.30;8.37;;;;;;;17.56;nan;101154.03;6165073;23;20479;-89
2022/10/09 04:58:45;;;;;;;13.60;7.77;;;;;;;17.54;nan;101149.78;6165366;23;20431;-90
2022/10/09 05:01:23;;;;;;;26.57;8.10;;;;;;;17.52;nan;101157.47;6165947;23;20407;-89
2022/10/09 05:03:50;;;;;;;13.57;6.60;;;;;;;17.55;nan;101165.31;6142296;23;20408;-90
2022/10/09 05:06:19;;;;;;;13.73;7.23;;;;;;;17.55;nan;101165.31;6215700;23;20474;-89
2022/10/09 05:08:46;;;;;;;18.23;7.00;;;;;;;17.55;nan;101165.31;6167021;23;20486;-89
2022/10/09 05:11:18;;;;;;;13.87;6.60;;;;;;;17.52;nan;101157.47;6168506;23;20471;-90
2022/10/09 05:13:48;;;;;;;12.53;5.93;;;;;;;17.47;nan;101163.72;6167457;23;20580;-90
2022/10/09 05:16:21;;;;;;;10.90;5.80;;;;;;;17.48;nan;101161.78;6216352;23;20953;-90
2022/10/09 05:18:54;;;;;;;16.70;6.17;;;;;;;17.48;nan;101168.16;6144019;23;20479;-90
2022/10/09 05:21:25;;;;;;;17.97;6.40;;;;;;;17.49;nan;101174.53;6168657;23;20403;-90
2022/10/09 05:23:53;;;;;;;14.17;6.03;;;;;;;17.47;nan;101179.44;6143562;23;20399;-89
2022/10/09 05:26:22;;;;;;;16.53;7.30;;;;;;;17.47;nan;101177.53;6167133;23;20905;-89
2022/10/09 05:28:50;;;;;;;16.43;6.63;;;;;;;17.49;nan;101182.84;6167695;23;20407;-89
2022/10/09 05:31:19;;;;;;;14.63;6.80;;;;;;;17.49;nan;101205.78;6216149;23;20722;-90
2022/10/09 05:33:47;;;;;;;16.63;7.47;;;;;;;17.46;nan;101206.25;6225172;23;20903;-90
2022/10/09 05:36:16;;;;;;;23.17;6.70;;;;;;;17.45;nan;101203.69;6196976;23;20406;-89
2022/10/09 05:38:44;;;;;;;15.57;7.40;;;;;;;17.45;nan;101209.22;6221114;23;20402;-89
2022/10/09 05:41:13;;;;;;;14.07;7.60;;;;;;;17.47;nan;101209.84;6196271;23;20398;-88
2022/10/09 05:43:42;;;;;;;19.73;8.33;;;;;;;17.43;nan;101214.97;6197281;23;20506;-90
2022/10/09 05:46:12;;;;;;;21.53;7.97;;;;;;;17.48;nan;101217.06;6197405;23;20893;-89
2022/10/09 05:48:41;;;;;;;19.40;8.80;;;;;;;17.40;nan;101217.34;6221342;23;20580;-89
2022/10/09 05:51:14;;;;;;;18.83;7.50;;;;;;;17.36;nan;101210.56;6217092;23;20407;-90
2022/10/09 05:53:43;;;;;;;15.37;7.53;;;;;;;17.36;nan;101225.25;6172915;23;20456;-89
2022/10/09 05:56:15;;;;;;;18.90;6.53;;;;;;;17.37;nan;101215.03;6197223;23;20538;-90
2022/10/09 05:58:42;;;;;;;18.43;7.00;;;;;;;17.33;nan;101222.06;6246151;23;20501;-89
2022/10/09 06:01:10;;;;;;;18.33;7.03;;;;;;;17.30;nan;101219.78;6172196;23;20897;-90
2022/10/09 06:03:39;;;;;;;12.60;6.80;;;;;;;17.29;nan;101220.88;6197154;23;20403;-90
2022/10/09 06:06:08;;;;;;;12.03;6.27;;;;;;;17.29;nan;101223.63;6196521;23;20429;-90
2022/10/09 06:08:36;;;;;;;17.43;7.10;;;;;;;17.29;nan;101231.91;6197110;23;20518;-89
2022/10/09 06:11:14;;;;;;;19.70;7.17;;;;;;;17.26;nan;101228.53;6221078;23;20414;-89
2022/10/09 06:13:43;;;;;;;14.10;6.23;;;;;;;17.27;nan;101224.69;6197510;23;20473;-90
2022/10/09 06:16:13;;;;;;;13.53;6.17;;;;;;;17.27;nan;101232.13;6172064;23;20606;-90
2022/10/09 06:18:43;;;;;;;15.87;7.17;;;;;;;17.20;nan;101229.41;6172289;23;20920;-89
2022/10/09 06:21:15;;;;;;;14.30;5.87;;;;;;;17.21;nan;101228.34;6199101;23;20395;-91
2022/10/09 06:23:42;;;;;;;15.33;6.30;;;;;;;17.16;nan;101213.53;6172538;23;20505;-89
2022/10/09 06:26:11;;;;;;;13.93;6.97;;;;;;;17.21;nan;101233.88;6196798;23;20494;-91
2022/10/09 06:28:40;;;;;;;18.13;6.63;;;;;;;17.22;nan;101223.69;6172417;23;20518;-90
2022/10/09 06:31:14;;;;;;;21.90;6.77;;;;;;;17.19;nan;101230.50;6172010;23;20414;-91
2022/10/09 06:33:43;;;;;;;19.50;6.50;;;;;;;17.18;nan;101226.03;6222478;23;20425;-90
2022/10/09 06:36:22;;;;;;;15.37;6.50;;;;;;;17.21;nan;101228.34;6172109;23;20715;-89
2022/10/09 06:38:51;;;;;;;20.07;6.03;;;;;;;17.19;nan;101236.03;6196853;23;20489;-90
2022/10/09 06:41:24;;;;;;;21.37;6.40;;;;;;;17.17;nan;101237.31;6196424;23;20411;-90
2022/10/09 06:43:56;;;;;;;11.67;6.37;;;;;;;17.17;nan;101238.16;6197094;23;20485;-90
2022/10/09 06:46:27;;;;;;;11.40;5.40;;;;;;;17.17;nan;101238.16;6171785;23;20917;-89
2022/10/09 06:49:00;;;;;;;12.77;5.60;;;;;;;17.14;nan;101238.59;6197344;23;20450;-91
2022/10/09 06:51:35;;;;;;;19.70;6.53;;;;;;;17.17;nan;101248.34;6172489;23;20391;-90
2022/10/09 06:54:13;;;;;;;22.50;7.27;;;;;;;17.21;nan;101244.94;6172974;23;20727;-92
2022/10/09 06:56:49;;;;;;;16.33;6.60;;;;;;;17.22;nan;101251.31;6196331;23;20417;-92
2022/10/09 06:59:30;;;;;;;16.33;7.00;;;;;;;17.27;nan;101251.47;6197593;23;20498;-91
2022/10/09 07:01:59;;;;;;;12.40;6.63;;;;;;;17.27;nan;101255.09;6172187;23;20541;-90
2022/10/09 07:04:35;;;;;;;30.97;7.37;;;;;;;17.27;nan;101257.00;6171785;23;20414;-90
2022/10/09 07:07:12;;;;;;;13.97;5.93;;;;;;;17.30;nan;101252.94;6196400;23;20449;-92
2022/10/09 07:09:48;;;;;;;15.30;6.03;;;;;;;17.29;nan;101259.53;6246894;23;20838;-92
2022/10/09 07:12:22;;;;;;;13.43;6.50;;;;;;;17.30;nan;101252.94;6221022;23;20398;-90
2022/10/09 07:14:55;;;;;;;16.53;5.77;;;;;;;17.35;nan;101266.91;6220989;23;20410;-90
2022/10/09 07:17:25;;;;;;;20.47;6.43;;;;;;;17.34;nan;101265.22;6245668;23;20421;-91
2022/10/09 07:19:54;;;;;;;16.73;6.80;;;;;;;17.34;nan;101255.00;6171291;23;20411;-90
2022/10/09 07:22:23;;;;;;;17.97;5.80;;;;;;;17.37;nan;101264.78;6171896;23;20479;-92
2022/10/09 07:24:58;;;;;;;15.40;6.47;;;;;;;17.45;nan;101267.25;6073035;23;20419;-90
2022/10/09 07:27:34;;;;;;;22.33;6.43;;;;;;;17.38;nan;101256.25;6061075;23;20431;-92
2022/10/09 07:30:11;;;;;;;24.37;6.80;;;;;;;17.54;nan;101285.22;6066622;23;20427;-90
2022/10/09 07:32:38;;;;;;;21.73;6.33;;;;;;;17.54;nan;101275.03;6072423;23;20438;-92
2022/10/09 07:35:47;;;;;;;16.63;6.17;;;;;;;17.63;nan;101285.81;6048676;23;20419;-90
2022/10/09 07:38:49;;;;;;;15.67;5.43;;;;;;;17.63;nan;101294.94;6095641;23;20426;-90
2022/10/09 07:41:27;;;;;;;27.83;6.40;;;;;;;17.58;nan;101280.94;6073587;23;20482;-90
2022/10/09 07:44:01;;;;;;;10.33;5.40;;;;;;;17.68;nan;101289.63;6024763;23;20780;-89
2022/10/09 07:46:29;;;;;;;14.13;5.93;;;;;;;17.67;nan;101287.94;6024892;23;20411;-90
2022/10/09 07:49:00;;;;;;;16.00;6.17;;;;;;;17.72;nan;101296.38;6031469;23;20447;-89
2022/10/09 07:51:31;;;;;;;13.40;5.73;;;;;;;17.77;nan;101292.94;6025346;23;20403;-90
2022/10/09 07:54:05;;;;;;;14.00;5.30;;;;;;;17.82;nan;101291.19;6071627;23;20844;-90
2022/10/09 07:56:43;;;;;;;21.37;5.73;;;;;;;17.91;nan;101305.53;6025214;23;20482;-91
2022/10/09 07:59:13;;;;;;;19.97;5.47;;;;;;;17.93;nan;101295.09;6047946;23;20551;-89
2022/10/09 08:01:41;;;;;;;14.00;5.83;;;;;;;18.01;nan;101299.50;6048609;23;20411;-90
2022/10/09 08:04:10;;;;;;;15.33;5.50;;;;;;;18.07;nan;101298.59;6024913;23;20804;-88
2022/10/09 08:06:39;;;;;;;13.00;5.00;;;;;;;18.16;nan;101299.94;6025069;23;20411;-90
2022/10/09 08:09:08;;;;;;;16.53;5.23;;;;;;;18.18;nan;101289.50;6024964;23;21020;-90
2022/10/09 08:11:39;;;;;;;20.07;5.50;;;;;;;18.27;nan;101293.66;5991753;23;20496;-89
2022/10/09 08:14:10;;;;;;;20.60;5.40;;;;;;;18.31;nan;101297.63;6053988;23;20406;-90
2022/10/09 08:16:44;;;;;;;24.77;6.30;;;;;;;18.48;nan;101311.69;6057000;23;21052;-88
2022/10/09 08:19:12;;;;;;;13.07;5.50;;;;;;;18.60;nan;101316.28;6076832;23;20414;-90
2022/10/09 08:21:39;;;;;;;14.63;5.30;;;;;;;18.64;nan;101316.66;6047601;23;20415;-90
2022/10/09 08:24:09;;;;;;;19.80;5.70;;;;;;;18.78;nan;101329.22;6084191;23;20410;-90
2022/10/09 08:26:37;;;;;;;19.53;5.70;;;;;;;18.92;nan;101340.97;6076791;23;20418;-89
2022/10/09 08:29:07;;;;;;;24.70;5.70;;;;;;;19.00;nan;101337.88;6068563;23;20436;-90
2022/10/09 08:31:36;;;;;;;17.87;5.20;;;;;;;19.07;nan;101338.63;6167455;23;20495;-90
2022/10/09 08:34:04;;;;;;;21.73;6.30;;;;;;;19.23;nan;101343.50;6205986;23;20442;-90
2022/10/09 08:36:35;;;;;;;24.03;6.80;;;;;;;19.31;nan;101345.94;6172642;23;20901;-90
2022/10/09 08:39:03;;;;;;;41.50;6.07;;;;;;;19.44;nan;101360.66;6171134;23;20486;-89
2022/10/09 08:41:51;;;;;;;18.40;5.73;;;;;;;19.52;nan;101350.13;6171279;23;20407;-90
2022/10/09 08:44:25;;;;;;;30.37;6.83;;;;;;;19.70;nan;101340.84;6219588;23;20421;-88
2022/10/09 08:47:26;;;;;;;15.03;5.50;;;;;;;19.75;nan;101346.53;6194414;23;20402;-86
2022/10/09 08:49:56;;;;;;;17.83;6.50;;;;;;;19.79;nan;101347.75;6219747;23;20413;-86
2022/10/09 08:52:49;;;;;;;21.60;5.73;;;;;;;19.89;nan;101338.81;6194955;23;20528;-87
2022/10/09 08:55:46;;;;;;;20.10;4.93;;;;;;;19.93;nan;101349.19;6220724;23;20478;-89
2022/10/09 08:58:16;;;;;;;24.63;6.30;;;;;;;20.03;nan;101345.81;6193258;23;20485;-89
2022/10/09 09:00:54;;;;;;;19.60;5.93;;;;;;;20.11;nan;101344.59;6220668;23;20533;-89
2022/10/09 09:03:43;;;;;;;18.83;5.33;;;;;;;20.21;nan;101350.38;6221430;23;20816;-88
2022/10/09 09:06:20;;;;;;;15.90;5.17;;;;;;;20.28;nan;101335.28;6222327;23;20826;-87
2022/10/09 09:09:09;;;;;;;28.60;7.17;;;;;;;20.47;nan;101349.06;6196142;23;20441;-87
2022/10/09 09:12:08;;;;;;;27.17;5.90;;;;;;;20.65;nan;101352.50;6245577;23;20759;-88
2022/10/09 09:15:15;;;;;;;23.07;6.77;;;;;;;20.84;nan;101366.22;6246440;23;20409;-91
2022/10/09 09:18:23;;;;;;;23.60;4.97;;;;;;;20.98;nan;101368.47;6220555;23;20418;-89
2022/10/09 09:20:53;;;;;;;28.07;6.40;;;;;;;21.03;nan;101365.78;6195444;23;20410;-91
2022/10/09 09:23:33;;;;;;;26.57;6.73;;;;;;;21.10;nan;101360.09;6195605;23;20399;-91
2022/10/09 09:26:02;;;;;;;25.57;6.43;;;;;;;21.11;nan;101353.44;6194950;23;20403;-92
2022/10/09 09:28:36;;;;;;;29.83;7.00;;;;;;;21.19;nan;101357.75;6195411;23;20443;-91
2022/10/09 09:31:41;;;;;;;33.23;8.33;;;;;;;21.34;nan;101361.72;6170904;23;20406;-92
2022/10/09 09:34:39;;;;;;;23.73;6.70;;;;;;;21.42;nan;101374.34;6171219;23;20510;-91
2022/10/09 09:37:32;;;;;;;21.63;6.37;;;;;;;21.56;nan;101383.19;6190342;23;20775;-92
2022/10/09 09:40:11;;;;;;;41.13;9.60;;;;;;;21.58;nan;101375.44;6165308;23;20411;-92
2022/10/09 09:42:59;;;;;;;30.33;7.07;;;;;;;21.61;nan;101369.38;6215441;23;20395;-92
2022/10/09 09:45:58;;;;;;;29.73;7.50;;;;;;;21.69;nan;101375.41;6191194;23;20452;-89
2022/10/09 09:48:47;;;;;;;25.60;6.60;;;;;;;21.76;nan;101369.66;6190070;23;20494;-92
2022/10/09 09:51:33;;;;;;;18.60;5.43;;;;;;;21.75;nan;101351.25;6215324;23;20410;-90
2022/10/09 09:54:28;;;;;;;24.90;6.10;;;;;;;21.93;nan;101364.94;6167150;23;20748;-91
2022/10/09 09:57:32;;;;;;;26.90;6.23;;;;;;;22.05;nan;101368.50;6191270;23;20742;-92
2022/10/09 10:00:21;;;;;;;28.50;6.60;;;;;;;22.15;nan;101359.44;6191537;23;20419;-92
2022/10/09 10:10:20;;;;;;;29.23;5.80;;;;;;;22.43;nan;101369.59;6218373;23;20398;-92
2022/10/09 10:16:43;;;;;;;24.73;6.27;;;;;;;22.86;nan;101365.19;6218223;23;20399;-93
2022/10/09 10:19:24;;;;;;;26.50;6.80;;;;;;;22.98;nan;101365.88;6168017;23;20499;-93
2022/10/09 10:22:25;;;;;;;27.53;7.10;;;;;;;23.16;nan;101367.47;6217886;23;20467;-92
2022/10/09 10:24:56;;;;;;;20.17;5.03;;;;;;;23.26;nan;101368.44;6214664;23;20886;-88
2022/10/09 10:27:34;;;;;;;28.77;5.10;;;;;;;23.42;nan;101381.44;6191296;23;20399;-89
2022/10/09 10:30:05;;;;;;;27.03;5.93;;;;;;;23.58;nan;101376.88;6191294;23;20402;-90
2022/10/09 10:32:37;;;;;;;42.03;6.70;;;;;;;23.68;nan;101376.09;6169811;23;20522;-89
2022/10/09 10:35:15;;;;;;;24.30;5.97;;;;;;;23.78;nan;101370.63;6221280;23;20406;-89
2022/10/09 10:37:52;;;;;;;18.30;5.43;;;;;;;23.90;nan;101373.22;6171304;23;20402;-89
2022/10/09 10:44:05;;;;;;;29.40;6.20;;;;;;;24.01;nan;101377.78;6248378;23;20362;-94
2022/10/09 10:47:15;;;;;;;29.20;6.93;;;;;;;24.19;nan;101370.94;6197552;23;20422;-95
2022/10/09 10:50:02;;;;;;;41.67;7.10;;;;;;;24.36;nan;101360.47;6102234;23;20450;-94
2022/10/09 10:53:01;;;;;;;27.63;6.63;;;;;;;24.39;nan;101371.94;6055200;23;20494;-93
2022/10/09 11:00:09;;;;;;;41.77;5.87;;;;;;;24.70;nan;101355.31;6126565;23;20752;-93
2022/10/09 11:03:01;;;;;;;28.87;5.63;;;;;;;24.84;nan;101353.69;6125246;23;20932;-93
2022/10/09 11:06:24;;;;;;;36.73;6.10;;;;;;;25.02;nan;101353.22;6101876;23;20418;-93
2022/10/09 11:16:50;;;;;;;36.57;6.17;;;;;;;25.45;nan;101351.91;6126234;23;20441;-92
2022/10/09 11:19:38;;;;;;;33.97;5.10;;;;;;;25.58;nan;101346.91;6126822;23;20493;-93
2022/10/09 11:22:36;;;;;;;35.03;5.70;;;;;;;25.78;nan;101346.94;6126483;23;20550;-92
2022/10/09 11:25:07;;;;;;;33.23;5.33;;;;;;;25.94;nan;101337.41;6125252;23;21037;-92
2022/10/09 11:27:46;;;;;;;30.87;5.30;;;;;;;26.06;nan;101323.91;6222978;23;20417;-93
2022/10/09 11:30:15;;;;;;;29.37;5.10;;;;;;;26.20;nan;101326.97;6244587;23;20419;-88
2022/10/09 11:32:55;;;;;;;41.13;6.00;;;;;;;26.43;nan;101339.53;6189029;23;20582;-87
2022/10/09 11:35:25;;;;;;;25.20;5.00;;;;;;;26.59;nan;101332.75;6215813;23;20407;-88
2022/10/09 11:37:59;;;;;;;43.10;5.80;;;;;;;26.75;nan;101330.72;6165194;23;20457;-89
2022/10/09 11:40:34;;;;;;;24.13;5.20;;;;;;;26.82;nan;101318.06;6166015;23;20487;-89
2022/10/09 11:43:27;;;;;;;20.80;4.03;;;;;;;27.04;nan;101328.09;6165329;23;20409;-89
2022/10/09 11:46:06;;;;;;;35.73;4.63;;;;;;;27.17;nan;101330.25;6190826;23;20415;-92
2022/10/09 11:49:12;;;;;;;27.90;4.80;;;;;;;27.30;nan;101321.19;6190100;23;20458;-89
2022/10/09 11:51:44;;;;;;;30.40;4.87;;;;;;;27.46;nan;101324.72;6214801;23;20415;-89
2022/10/09 11:54:13;;;;;;;35.57;5.10;;;;;;;27.57;nan;101325.47;6189956;23;20482;-89
2022/10/09 11:57:01;;;;;;;42.37;5.20;;;;;;;27.70;nan;101320.06;6094931;23;20400;-89
2022/10/09 11:59:35;;;;;;;25.93;5.20;;;;;;;27.76;nan;101318.03;6084562;23;20542;-89
2022/10/09 12:02:22;;;;;;;31.70;5.40;;;;;;;27.91;nan;101317.88;6048688;23;20765;-89
2022/10/09 12:04:49;;;;;;;33.33;4.97;;;;;;;28.02;nan;101324.25;6071314;23;21034;-89
2022/10/09 12:07:34;;;;;;;27.60;5.10;;;;;;;28.19;nan;101317.06;6049489;23;20763;-89
2022/10/09 12:10:29;;;;;;;40.60;5.90;;;;;;;28.36;nan;101315.75;6048476;23;20478;-89
2022/10/09 12:13:04;;;;;;;29.30;4.53;;;;;;;28.45;nan;101308.34;6048715;23;20454;-89
2022/10/09 12:15:54;;;;;;;32.40;3.83;;;;;;;28.51;nan;101307.97;6009034;23;20835;-89
2022/10/09 12:18:52;;;;;;;26.20;4.90;;;;;;;28.57;nan;101310.72;5986119;23;20414;-89
2022/10/09 12:21:25;;;;;;;27.90;4.63;;;;;;;28.60;nan;101302.53;6030964;23;20410;-89
2022/10/09 12:23:53;;;;;;;22.53;5.00;;;;;;;28.70;nan;101305.19;6048038;23;20441;-89
2022/10/09 12:30:10;;;;;;;31.20;5.10;;;;;;;28.63;nan;101299.09;6095177;23;20446;-89
2022/10/09 12:32:58;;;;;;;32.03;4.70;;;;;;;28.64;nan;101289.53;6083473;23;20560;-89
2022/10/09 12:35:32;;;;;;;29.20;4.13;;;;;;;28.78;nan;101300.88;6182509;23;20414;-89
2022/10/09 12:38:45;;;;;;;35.13;5.20;;;;;;;28.86;nan;101295.41;6246138;23;20406;-89
2022/10/09 12:41:22;;;;;;;32.53;5.10;;;;;;;28.95;nan;101294.75;6220186;23;20403;-89
2022/10/09 12:43:52;;;;;;;23.30;4.23;;;;;;;28.90;nan;101275.13;6197821;23;20489;-89
2022/10/09 12:46:33;;;;;;;25.00;4.63;;;;;;;28.87;nan;101288.66;6195471;23;20407;-89
2022/10/09 12:49:03;;;;;;;24.57;4.67;;;;;;;28.84;nan;101283.66;6196253;23;20520;-89